createdAt,value
2022-08-26T00:01:40.185Z,7.47
2022-08-26T00:04:42.025Z,7.60
2022-08-26T00:07:44.162Z,7.20
2022-08-26T00:10:46.031Z,7.30
2022-08-26T00:13:48.905Z,6.97
2022-08-26T00:16:51.854Z,7.35
2022-08-26T00:19:57.164Z,7.75
2022-08-26T00:22:58.845Z,7.78
2022-08-26T00:26:01.331Z,8.10
2022-08-26T00:29:03.904Z,7.55
2022-08-26T00:32:07.012Z,7.13
2022-08-26T00:35:10.434Z,7.75
2022-08-26T00:38:13.373Z,7.68
2022-08-26T00:41:15.386Z,7.82
2022-08-26T00:44:19.558Z,7.57
2022-08-26T00:47:28.547Z,8.13
2022-08-26T00:50:38.490Z,7.65
2022-08-26T00:53:48.193Z,7.25
2022-08-26T00:56:53.428Z,7.68
2022-08-26T00:59:58.899Z,7.85
2022-08-26T01:03:03.460Z,7.70
2022-08-26T01:06:12.574Z,7.80
2022-08-26T01:09:16.254Z,7.78
2022-08-26T01:12:22.217Z,8.23
2022-08-26T01:15:32.953Z,7.20
2022-08-26T01:18:35.927Z,7.57
2022-08-26T01:22:03.626Z,8.32
2022-08-26T01:25:05.928Z,8.20
2022-08-26T01:28:14.637Z,7.53
2022-08-26T01:31:23.786Z,8.32
2022-08-26T01:34:35.068Z,8.40
2022-08-26T01:37:40.504Z,8.15
2022-08-26T01:40:44.023Z,8.37
2022-08-26T01:43:48.455Z,8.23
2022-08-26T01:46:52.235Z,7.80
2022-08-26T01:49:56.762Z,7.72
2022-08-26T01:53:02.624Z,8.63
2022-08-26T01:56:05.345Z,7.40
2022-08-26T01:59:11.293Z,7.55
2022-08-26T02:02:14.039Z,7.82
2022-08-26T02:05:19.419Z,8.20
2022-08-26T02:08:39.247Z,8.18
2022-08-26T02:11:41.160Z,8.23
2022-08-26T02:14:50.154Z,8.30
2022-08-26T02:17:53.231Z,7.82
2022-08-26T02:20:56.377Z,7.68
2022-08-26T02:24:08.999Z,8.68
2022-08-26T02:27:10.686Z,8.60
2022-08-26T02:30:18.114Z,8.30
2022-08-26T02:33:19.817Z,8.65
2022-08-26T02:36:25.043Z,8.80
2022-08-26T02:39:31.827Z,8.68
2022-08-26T02:42:34.060Z,7.90
2022-08-26T02:45:36.051Z,8.18
2022-08-26T02:48:37.741Z,8.55
2022-08-26T02:51:39.447Z,7.82
2022-08-26T02:54:41.842Z,7.85
2022-08-26T02:57:43.740Z,7.95
2022-08-26T03:00:52.539Z,7.80
2022-08-26T03:03:56.178Z,7.68
2022-08-26T03:06:58.685Z,8.10
2022-08-26T03:10:01.520Z,8.63
2022-08-26T03:13:10.073Z,8.43
2022-08-26T03:16:13.411Z,8.20
2022-08-26T03:19:15.325Z,9.27
2022-08-26T03:22:19.430Z,8.43
2022-08-26T03:25:23.032Z,8.38
2022-08-26T03:28:27.209Z,8.52
2022-08-26T03:31:29.838Z,8.60
2022-08-26T03:34:31.985Z,8.27
2022-08-26T03:37:33.663Z,8.40
2022-08-26T03:40:36.767Z,7.88
2022-08-26T03:43:40.708Z,8.63
2022-08-26T03:46:42.445Z,9.02
2022-08-26T03:49:45.751Z,8.85
2022-08-26T03:52:47.939Z,9.30
2022-08-26T03:55:51.887Z,10.65
2022-08-26T03:58:54.240Z,9.70
2022-08-26T04:01:56.033Z,10.07
2022-08-26T04:04:57.740Z,9.73
2022-08-26T04:07:59.580Z,9.85
2022-08-26T04:11:01.294Z,9.18
2022-08-26T04:14:14.288Z,9.43
2022-08-26T04:17:20.068Z,10.25
2022-08-26T04:20:27.269Z,9.57
2022-08-26T04:23:29.853Z,9.75
2022-08-26T04:26:39.509Z,9.60
2022-08-26T04:29:46.263Z,9.90
2022-08-26T04:32:54.234Z,10.10
2022-08-26T04:36:01.004Z,10.20
2022-08-26T04:39:05.337Z,9.02
2022-08-26T04:42:07.037Z,9.43
2022-08-26T04:45:10.395Z,9.43
2022-08-26T04:48:13.485Z,9.27
2022-08-26T04:51:20.997Z,9.95
2022-08-26T04:54:22.746Z,9.90
2022-08-26T04:57:24.450Z,9.48
2022-08-26T05:00:26.131Z,9.50
2022-08-26T05:03:30.539Z,9.90
2022-08-26T05:06:36.823Z,10.07
2022-08-26T05:09:42.055Z,9.52
2022-08-26T05:12:44.360Z,10.73
2022-08-26T05:15:47.034Z,10.07
2022-08-26T05:18:48.982Z,9.77
2022-08-26T05:21:50.649Z,10.10
2022-08-26T05:24:52.300Z,10.02
2022-08-26T05:27:54.313Z,9.13
2022-08-26T05:30:56.351Z,9.18
2022-08-26T05:33:59.286Z,10.00
2022-08-26T05:37:00.952Z,11.85
2022-08-26T05:40:04.610Z,11.27
2022-08-26T05:43:10.410Z,11.30
2022-08-26T05:46:12.394Z,10.35
2022-08-26T05:49:15.840Z,10.52
2022-08-26T05:52:17.759Z,10.10
2022-08-26T05:55:20.652Z,10.15
2022-08-26T05:58:23.109Z,10.15
2022-08-26T06:01:28.022Z,9.90
2022-08-26T06:04:29.914Z,9.00
2022-08-26T06:07:50.367Z,9.25
2022-08-26T06:10:59.822Z,9.57
2022-08-26T06:14:06.076Z,9.10
2022-08-26T06:20:36.922Z,9.30
2022-08-26T06:23:57.847Z,8.38
2022-08-26T06:27:04.955Z,8.90
2022-08-26T06:30:07.344Z,8.77
2022-08-26T06:36:55.519Z,10.50
2022-08-26T06:40:05.607Z,10.10
2022-08-26T06:43:09.221Z,9.52
2022-08-26T06:46:12.854Z,9.43
2022-08-26T06:49:14.496Z,8.88
2022-08-26T06:52:24.422Z,8.93
2022-08-26T06:55:26.941Z,9.68
2022-08-26T06:58:28.906Z,9.73
2022-08-26T07:01:33.762Z,9.73
2022-08-26T07:04:36.174Z,9.57
2022-08-26T07:07:38.457Z,8.73
2022-08-26T07:10:40.122Z,8.50
2022-08-26T07:13:41.867Z,7.45
2022-08-26T07:16:45.086Z,8.18
2022-08-26T07:19:48.926Z,8.60
2022-08-26T07:22:51.066Z,8.27
2022-08-26T07:25:52.746Z,7.93
2022-08-26T07:28:56.218Z,8.48
2022-08-26T07:31:58.487Z,8.68
2022-08-26T07:35:01.510Z,8.90
2022-08-26T07:38:03.467Z,8.43
2022-08-26T07:41:06.107Z,8.20
2022-08-26T07:44:10.225Z,7.82
2022-08-26T07:47:24.984Z,7.85
2022-08-26T07:50:38.429Z,7.40
2022-08-26T07:53:52.403Z,7.28
2022-08-26T07:56:55.856Z,7.07
2022-08-26T07:59:59.088Z,7.40
2022-08-26T08:03:02.652Z,6.78
2022-08-26T08:06:04.626Z,7.00
2022-08-26T08:09:07.905Z,7.20
2022-08-26T08:12:14.112Z,6.18
2022-08-26T08:15:20.398Z,6.75
2022-08-26T08:18:23.392Z,5.60
2022-08-26T08:21:25.905Z,5.55
2022-08-26T08:24:27.724Z,6.18
2022-08-26T08:27:29.513Z,6.00
2022-08-26T08:30:31.841Z,5.72
2022-08-26T08:33:36.847Z,6.00
2022-08-26T08:36:40.183Z,6.35
2022-08-26T08:39:43.263Z,5.82
2022-08-26T08:43:07.099Z,5.90
2022-08-26T08:46:15.406Z,5.75
2022-08-26T08:49:18.553Z,6.05
2022-08-26T08:52:29.474Z,6.38
2022-08-26T08:55:55.593Z,6.10
2022-08-26T08:59:56.868Z,6.15
2022-08-26T09:03:11.965Z,6.07
2022-08-26T09:06:22.620Z,6.43
2022-08-26T09:09:50.999Z,6.47
2022-08-26T09:12:53.096Z,6.22
2022-08-26T09:16:14.050Z,6.93
2022-08-26T09:19:52.320Z,6.30
2022-08-26T09:26:32.572Z,6.30
2022-08-26T09:29:50.490Z,6.43
2022-08-26T09:33:02.491Z,6.30
2022-08-26T09:36:26.305Z,5.95
2022-08-26T09:39:38.583Z,6.63
2022-08-26T09:42:40.392Z,5.60
2022-08-26T09:45:58.489Z,6.78
2022-08-26T09:49:32.665Z,6.38
2022-08-26T09:52:38.208Z,6.17
2022-08-26T09:55:45.776Z,6.00
2022-08-26T09:58:48.279Z,6.00
2022-08-26T10:01:50.136Z,5.95
2022-08-26T10:04:55.334Z,6.20
2022-08-26T10:07:59.572Z,6.00
2022-08-26T10:11:24.572Z,5.70
2022-08-26T10:14:48.893Z,6.13
2022-08-26T10:18:03.630Z,6.03
2022-08-26T10:21:29.117Z,5.93
2022-08-26T10:24:41.866Z,5.82
2022-08-26T10:27:58.952Z,6.10
2022-08-26T10:31:14.751Z,6.13
2022-08-26T10:34:18.601Z,5.47
2022-08-26T10:37:31.140Z,5.65
2022-08-26T10:41:09.810Z,5.20
2022-08-26T10:44:16.096Z,5.97
2022-08-26T10:47:46.107Z,6.20
2022-08-26T10:50:48.719Z,5.82
2022-08-26T10:53:58.987Z,6.78
2022-08-26T10:57:10.953Z,5.90
2022-08-26T11:00:50.002Z,5.80
2022-08-26T11:04:10.653Z,5.07
2022-08-26T11:07:43.273Z,5.57
2022-08-26T11:10:59.999Z,5.18
2022-08-26T11:14:05.079Z,5.40
2022-08-26T11:17:09.461Z,5.25
2022-08-26T11:20:23.874Z,5.13
2022-08-26T11:23:28.953Z,4.93
2022-08-26T11:26:55.397Z,4.60
2022-08-26T11:30:13.156Z,4.97
2022-08-26T11:33:47.923Z,4.82
2022-08-26T11:37:04.044Z,4.85
2022-08-26T11:40:12.359Z,4.88
2022-08-26T11:43:30.566Z,5.10
2022-08-26T11:46:37.970Z,5.22
2022-08-26T11:49:41.802Z,4.35
2022-08-26T11:53:13.911Z,3.88
2022-08-26T12:05:09.190Z,4.30
2022-08-26T12:08:24.865Z,4.20
2022-08-26T12:11:34.616Z,4.13
2022-08-26T12:18:45.966Z,4.38
2022-08-26T12:21:49.107Z,4.60
2022-08-26T12:24:59.864Z,4.38
2022-08-26T12:28:05.586Z,4.50
2022-08-26T12:31:08.355Z,4.65
2022-08-26T12:34:18.130Z,4.45
2022-08-26T12:37:20.389Z,4.82
2022-08-26T12:40:43.587Z,4.47
2022-08-26T12:43:45.999Z,4.70
2022-08-26T12:46:49.786Z,4.72
2022-08-26T12:50:03.418Z,4.50
2022-08-26T12:53:17.841Z,5.07
2022-08-26T12:56:29.400Z,4.88
2022-08-26T12:59:31.061Z,4.70
2022-08-26T13:02:38.314Z,5.10
2022-08-26T13:05:40.088Z,4.80
2022-08-26T13:08:49.375Z,5.30
2022-08-26T13:11:53.163Z,4.80
2022-08-26T13:14:55.282Z,5.00
2022-08-26T13:17:58.294Z,4.80
2022-08-26T13:21:00.332Z,5.20
2022-08-26T13:24:09.444Z,4.80
2022-08-26T13:27:14.358Z,4.90
2022-08-26T13:30:16.254Z,5.53
2022-08-26T13:33:18.589Z,4.90
2022-08-26T13:36:20.359Z,4.85
2022-08-26T13:39:22.830Z,4.50
2022-08-26T13:42:24.617Z,4.75
2022-08-26T13:45:26.286Z,4.70
2022-08-26T13:48:28.056Z,5.00
2022-08-26T13:51:30.034Z,4.30
2022-08-26T13:54:31.738Z,4.40
2022-08-26T13:57:33.692Z,4.78
2022-08-26T14:00:44.096Z,4.47
2022-08-26T14:03:46.319Z,4.32
2022-08-26T14:06:48.207Z,4.60
2022-08-26T14:09:50.122Z,4.90
2022-08-26T14:12:52.797Z,4.60
2022-08-26T14:15:54.681Z,4.75
2022-08-26T14:18:56.391Z,4.68
2022-08-26T14:22:00.801Z,4.88
2022-08-26T14:25:02.985Z,5.15
2022-08-26T14:28:04.997Z,5.35
2022-08-26T14:31:07.184Z,5.45
2022-08-26T14:34:09.716Z,5.72
2022-08-26T14:37:19.047Z,6.22
2022-08-26T14:40:22.790Z,5.70
2022-08-26T14:43:24.529Z,5.35
2022-08-26T14:46:29.444Z,6.15
2022-08-26T14:52:53.973Z,5.22
2022-08-26T14:55:55.659Z,5.65
2022-08-26T14:58:57.449Z,5.60
2022-08-26T15:02:00.708Z,5.60
2022-08-26T15:05:04.432Z,5.97
2022-08-26T15:08:13.951Z,5.72
2022-08-26T15:11:20.469Z,6.00
2022-08-26T15:14:26.759Z,5.63
2022-08-26T15:17:29.477Z,5.45
2022-08-26T15:20:38.748Z,6.13
2022-08-26T15:23:47.620Z,5.60
2022-08-26T15:26:50.112Z,5.70
2022-08-26T15:29:51.895Z,5.85
2022-08-26T15:32:53.695Z,5.68
2022-08-26T15:35:55.873Z,6.05
2022-08-26T15:39:04.526Z,5.63
2022-08-26T15:42:15.128Z,5.75
2022-08-26T15:45:25.999Z,5.57
2022-08-26T15:48:34.347Z,5.43
2022-08-26T15:51:45.843Z,5.13
2022-08-26T15:54:47.869Z,4.70
2022-08-26T15:57:51.713Z,4.75
2022-08-26T16:00:57.632Z,4.95
2022-08-26T16:03:59.798Z,5.20
2022-08-26T16:07:01.991Z,5.07
2022-08-26T16:10:04.046Z,5.50
2022-08-26T16:13:27.112Z,5.30
2022-08-26T16:16:41.480Z,5.63
2022-08-26T16:19:43.337Z,5.38
2022-08-26T16:22:45.078Z,5.72
2022-08-26T16:25:47.087Z,5.75
2022-08-26T16:28:49.144Z,6.20
2022-08-26T16:31:53.373Z,6.22
2022-08-26T16:34:56.695Z,6.30
2022-08-26T16:37:58.794Z,6.28
2022-08-26T16:41:01.246Z,6.72
2022-08-26T16:44:04.199Z,7.00
2022-08-26T16:47:06.088Z,6.90
2022-08-26T16:50:13.021Z,6.90
2022-08-26T16:56:18.973Z,7.55
2022-08-26T16:59:24.063Z,7.75
2022-08-26T17:02:28.911Z,8.15
2022-08-26T17:05:30.783Z,7.80
2022-08-26T17:08:40.100Z,8.20
2022-08-26T17:11:42.072Z,7.70
2022-08-26T17:14:43.834Z,7.75
2022-08-26T17:17:50.888Z,7.95
2022-08-26T17:20:55.529Z,8.85
2022-08-26T17:23:57.403Z,8.65
2022-08-26T17:26:59.071Z,9.00
2022-08-26T17:30:00.697Z,9.63
2022-08-26T17:33:02.627Z,9.68
2022-08-26T17:36:12.481Z,9.75
2022-08-26T17:39:14.442Z,10.07
2022-08-26T17:42:16.401Z,10.15
2022-08-26T17:45:21.739Z,10.65
2022-08-26T17:48:29.602Z,9.77
2022-08-26T17:51:31.417Z,10.27
2022-08-26T17:54:33.133Z,10.27
2022-08-26T17:57:40.556Z,11.23
2022-08-26T18:00:45.005Z,11.00
2022-08-26T18:03:50.079Z,11.18
2022-08-26T18:06:51.876Z,11.30
2022-08-26T18:09:53.633Z,11.30
2022-08-26T18:12:57.629Z,11.27
2022-08-26T18:15:59.934Z,11.45
2022-08-26T18:19:01.988Z,12.30
2022-08-26T18:22:03.897Z,12.48
2022-08-26T18:25:07.759Z,13.35
2022-08-26T18:28:09.896Z,13.00
2022-08-26T18:31:11.695Z,13.65
2022-08-26T18:34:15.436Z,14.88
2022-08-26T18:37:17.313Z,13.23
2022-08-26T18:40:19.058Z,13.32
2022-08-26T18:43:21.324Z,13.68
2022-08-26T18:46:25.380Z,12.85
2022-08-26T18:49:27.932Z,13.43
2022-08-26T18:52:32.971Z,12.55
2022-08-26T18:55:39.676Z,12.93
2022-08-26T18:58:41.535Z,13.00
2022-08-26T19:01:46.648Z,12.85
2022-08-26T19:04:54.422Z,12.77
2022-08-26T19:07:57.163Z,11.68
2022-08-26T19:11:01.232Z,11.43
2022-08-26T19:14:08.216Z,12.10
2022-08-26T19:17:10.901Z,11.60
2022-08-26T19:20:12.681Z,12.20
2022-08-26T19:23:30.959Z,12.02
2022-08-26T19:26:34.360Z,12.57
2022-08-26T19:29:36.318Z,13.82
2022-08-26T19:32:38.273Z,13.40
2022-08-26T19:35:45.035Z,16.10
2022-08-26T19:38:47.681Z,14.93
2022-08-26T19:41:49.490Z,15.55
2022-08-26T19:45:24.346Z,15.32
2022-08-26T19:48:27.356Z,13.88
2022-08-26T19:51:31.733Z,13.82
2022-08-26T19:54:34.151Z,12.63
2022-08-26T19:57:36.890Z,13.07
2022-08-26T20:00:39.803Z,13.38
2022-08-26T20:03:42.151Z,11.82
2022-08-26T20:06:43.793Z,12.43
2022-08-26T20:09:46.770Z,11.15
2022-08-26T20:12:51.855Z,10.27
2022-08-26T20:15:53.549Z,11.35
2022-08-26T20:19:13.687Z,10.63
2022-08-26T20:22:15.599Z,11.27
2022-08-26T20:25:17.348Z,12.75
2022-08-26T20:28:19.120Z,12.27
2022-08-26T20:31:21.619Z,12.15
2022-08-26T20:34:23.396Z,13.00
2022-08-26T20:37:25.270Z,12.45
2022-08-26T20:40:27.089Z,11.48
2022-08-26T20:43:29.421Z,11.82
2022-08-26T20:46:34.612Z,10.63
2022-08-26T20:49:36.312Z,10.52
2022-08-26T20:52:38.665Z,8.48
2022-08-26T20:55:40.302Z,7.95
2022-08-26T20:58:42.355Z,8.68
2022-08-26T21:01:45.508Z,8.15
2022-08-26T21:04:47.493Z,8.75
2022-08-26T21:07:49.300Z,7.88
2022-08-26T21:10:51.597Z,7.50
2022-08-26T21:14:06.701Z,6.88
2022-08-26T21:17:16.330Z,5.70
2022-08-26T21:20:18.658Z,5.75
2022-08-26T21:23:20.407Z,5.57
2022-08-26T21:26:22.706Z,5.03
2022-08-26T21:29:24.461Z,5.40
2022-08-26T21:32:26.404Z,5.53
2022-08-26T21:35:28.071Z,5.15
2022-08-26T21:38:31.065Z,5.30
2022-08-26T21:41:32.809Z,4.55
2022-08-26T21:44:34.577Z,4.57
2022-08-26T21:47:36.477Z,5.38
2022-08-26T21:50:38.273Z,4.80
2022-08-26T21:53:40.657Z,5.38
2022-08-26T21:56:46.776Z,5.28
2022-08-26T21:59:48.499Z,5.30
2022-08-26T22:02:50.234Z,5.53
2022-08-26T22:05:52.645Z,5.63
2022-08-26T22:08:55.922Z,4.88
2022-08-26T22:11:58.135Z,4.93
2022-08-26T22:14:59.828Z,4.97
2022-08-26T22:18:05.297Z,5.10
2022-08-26T22:21:09.604Z,5.57
2022-08-26T22:24:12.270Z,5.78
2022-08-26T22:27:14.761Z,6.20
2022-08-26T22:30:16.483Z,6.20
2022-08-26T22:33:18.793Z,6.32
2022-08-26T22:36:28.861Z,6.28
2022-08-26T22:39:31.133Z,6.32
2022-08-26T22:42:33.237Z,5.80
2022-08-26T22:45:35.070Z,6.18
2022-08-26T22:48:38.505Z,6.43
2022-08-26T22:51:40.164Z,6.55
2022-08-26T22:54:41.812Z,6.43
2022-08-26T22:57:43.714Z,7.05
2022-08-26T23:00:47.963Z,6.47
2022-08-26T23:03:49.886Z,7.03
2022-08-26T23:06:51.592Z,7.22
2022-08-26T23:09:53.213Z,7.80
2022-08-26T23:12:54.871Z,7.20
2022-08-26T23:16:09.201Z,6.65
2022-08-26T23:19:14.534Z,7.32
2022-08-26T23:22:17.471Z,6.97
2022-08-26T23:25:19.419Z,7.28
2022-08-26T23:28:23.043Z,7.03
2022-08-26T23:31:24.990Z,7.28
2022-08-26T23:34:45.269Z,7.43
2022-08-26T23:37:54.105Z,7.35
2022-08-26T23:40:57.263Z,7.45
2022-08-26T23:44:03.304Z,8.10
2022-08-26T23:50:08.974Z,7.50
2022-08-26T23:53:11.239Z,7.50
2022-08-26T23:56:15.880Z,7.57
2022-08-26T23:59:17.595Z,7.38
